Time;durP1;ratioP1;P1;durP2;ratioP2;P2;SDS_P1;SDS_P2;PMS_P1;PMS_P2;Temp;Humidity;BMP_temperature;BMP_pressure;BME280_temperature;BME280_humidity;BME280_pressure;Samples;Min_cycle;Max_cycle;Signal;HPM_P1;HPM_P2
2022/06/01 00:00:53;;;;;;;25.48;22.60;;;11.60;99.90;;;;;;5094346;28;20501;-57
2022/06/01 00:03:19;;;;;;;24.98;22.17;;;11.60;99.90;;;;;;5095799;28;20016;-57
2022/06/01 00:05:44;;;;;;;27.02;22.80;;;11.60;99.90;;;;;;5077483;28;20038;-57
2022/06/01 00:08:10;;;;;;;24.00;21.48;;;11.50;99.90;;;;;;5092145;28;20024;-59
2022/06/01 00:10:35;;;;;;;24.90;22.20;;;11.60;99.90;;;;;;5095507;28;20016;-58
2022/06/01 00:13:03;;;;;;;25.58;22.88;;;11.60;99.90;;;;;;5096018;28;20076;-57
2022/06/01 00:15:30;;;;;;;24.15;21.55;;;11.60;99.90;;;;;;5093003;28;20097;-58
2022/06/01 00:17:57;;;;;;;25.63;22.90;;;11.60;99.90;;;;;;5086799;28;20051;-56
2022/06/01 00:20:23;;;;;;;30.55;25.02;;;11.60;99.90;;;;;;5089376;28;20031;-59
2022/06/01 00:22:48;;;;;;;26.77;23.98;;;11.70;99.90;;;;;;5094916;28;20103;-58
2022/06/01 00:25:15;;;;;;;26.65;23.85;;;11.70;99.90;;;;;;5098579;28;20737;-58
2022/06/01 00:27:41;;;;;;;26.52;23.73;;;11.80;99.90;;;;;;5091859;28;20073;-57
2022/06/01 00:30:10;;;;;;;29.98;25.23;;;11.70;99.90;;;;;;5098146;28;20087;-58
2022/06/01 00:32:36;;;;;;;28.02;24.45;;;11.70;99.90;;;;;;5095963;28;20132;-57
2022/06/01 00:35:03;;;;;;;26.67;22.77;;;11.50;99.90;;;;;;5092172;28;20130;-58
2022/06/01 00:37:29;;;;;;;25.48;22.77;;;11.50;99.90;;;;;;5092605;28;20178;-59
2022/06/01 00:39:55;;;;;;;24.48;21.52;;;11.40;99.90;;;;;;5089772;28;20487;-57
2022/06/01 00:42:28;;;;;;;23.70;21.20;;;11.40;99.90;;;;;;5090638;28;20032;-57
2022/06/01 00:44:54;;;;;;;24.98;21.67;;;11.30;99.90;;;;;;5096789;28;20528;-58
2022/06/01 00:47:22;;;;;;;23.73;21.10;;;11.40;99.90;;;;;;5096653;28;20062;-57
2022/06/01 00:49:53;;;;;;;22.25;19.95;;;11.40;99.90;;;;;;5084543;28;20049;-59
2022/06/01 00:52:35;;;;;;;23.23;20.40;;;11.40;99.90;;;;;;5091002;28;20024;-58
2022/06/01 00:55:13;;;;;;;21.63;19.27;;;11.30;99.90;;;;;;5083140;28;20059;-57
2022/06/01 00:57:41;;;;;;;22.25;19.77;;;11.30;99.90;;;;;;5089480;28;20049;-57
2022/06/01 01:00:21;;;;;;;23.23;20.08;;;11.20;99.90;;;;;;5084926;28;20561;-58
2022/06/01 01:02:48;;;;;;;22.00;19.17;;;11.30;99.90;;;;;;5077337;28;20115;-57
2022/06/01 01:05:16;;;;;;;23.60;19.60;;;11.20;99.90;;;;;;5078590;28;20028;-57
2022/06/01 01:07:43;;;;;;;21.30;19.00;;;11.10;99.90;;;;;;5081994;28;20020;-57
2022/06/01 01:10:11;;;;;;;24.15;20.02;;;11.10;99.90;;;;;;5080015;28;20131;-57
2022/06/01 01:15:21;;;;;;;20.58;18.25;;;11.20;99.90;;;;;;5092096;28;20430;-58
2022/06/01 01:17:49;;;;;;;19.77;17.65;;;11.10;99.90;;;;;;5100031;28;20031;-59
2022/06/01 01:20:16;;;;;;;19.60;17.50;;;11.00;99.90;;;;;;5092805;28;20714;-57
2022/06/01 01:22:55;;;;;;;19.30;17.20;;;11.00;99.90;;;;;;5096632;28;20023;-58
2022/06/01 01:25:30;;;;;;;25.58;17.48;;;10.90;99.90;;;;;;5091089;28;20020;-57
2022/06/01 01:27:59;;;;;;;20.08;17.17;;;11.00;99.90;;;;;;5087702;28;20043;-57
2022/06/01 01:30:39;;;;;;;19.17;16.63;;;11.00;99.90;;;;;;5091303;28;20575;-59
2022/06/01 01:33:17;;;;;;;18.83;16.42;;;10.80;99.90;;;;;;5100066;28;20402;-58
2022/06/01 01:35:47;;;;;;;18.73;16.77;;;10.80;99.90;;;;;;5082664;28;20077;-58
2022/06/01 01:38:38;;;;;;;20.63;17.00;;;10.70;99.90;;;;;;5087397;28;20020;-57
2022/06/01 01:41:09;;;;;;;19.55;16.42;;;10.70;99.90;;;;;;5090821;28;20187;-57
2022/06/01 01:43:42;;;;;;;22.48;17.60;;;10.70;99.90;;;;;;5092523;28;20051;-59
2022/06/01 01:46:07;;;;;;;17.48;15.30;;;10.70;99.90;;;;;;5090314;28;20245;-58
2022/06/01 01:48:35;;;;;;;21.55;17.23;;;10.60;99.90;;;;;;5093316;28;20499;-58
2022/06/01 01:51:02;;;;;;;18.58;16.23;;;10.60;99.90;;;;;;5086070;28;20042;-59
2022/06/01 01:53:29;;;;;;;17.35;15.52;;;10.60;99.90;;;;;;5087920;28;20503;-58
2022/06/01 01:56:32;;;;;;;19.20;17.05;;;10.50;99.90;;;;;;5082793;28;20024;-57
2022/06/01 01:59:11;;;;;;;21.42;17.08;;;10.60;99.90;;;;;;5083281;28;20383;-59
2022/06/01 02:01:51;;;;;;;20.42;17.60;;;10.60;99.90;;;;;;5090142;28;20028;-59
2022/06/01 02:07:18;;;;;;;19.42;15.88;;;10.50;99.90;;;;;;5064134;28;20043;-58
2022/06/01 02:12:43;;;;;;;18.73;15.52;;;10.50;99.90;;;;;;5081885;28;20092;-57
2022/06/01 02:15:28;;;;;;;17.02;14.40;;;10.40;99.90;;;;;;5082256;28;20084;-58
2022/06/01 02:17:59;;;;;;;18.30;15.50;;;10.20;99.90;;;;;;5083635;28;20036;-58
2022/06/01 02:20:34;;;;;;;17.50;15.45;;;10.30;99.90;;;;;;5095344;28;20081;-58
2022/06/01 02:23:01;;;;;;;18.10;16.10;;;10.40;99.90;;;;;;5086398;28;20531;-57
2022/06/01 02:25:27;;;;;;;17.88;15.30;;;10.40;99.90;;;;;;5100292;28;20094;-58
2022/06/01 02:27:57;;;;;;;17.65;15.85;;;10.30;99.90;;;;;;5082397;28;20112;-58
2022/06/01 02:30:40;;;;;;;20.58;16.27;;;10.30;99.90;;;;;;5088673;28;20040;-57
2022/06/01 02:33:08;;;;;;;;;;;10.30;99.90;;;;;;5096769;28;20380;-59
2022/06/01 02:35:38;;;;;;;19.27;17.02;;;10.40;99.90;;;;;;5081394;28;19940;-58
2022/06/01 02:38:10;;;;;;;22.33;16.70;;;10.30;99.90;;;;;;5083984;28;20081;-58
2022/06/01 02:40:37;;;;;;;19.30;16.25;;;10.30;99.90;;;;;;5094464;28;20102;-58
2022/06/01 02:43:03;;;;;;;19.13;16.52;;;10.40;99.90;;;;;;5089990;28;20762;-58
2022/06/01 02:45:29;;;;;;;19.65;16.92;;;10.40;99.90;;;;;;5091502;28;20035;-57
2022/06/01 02:47:59;;;;;;;19.83;16.70;;;10.30;99.90;;;;;;5090719;28;20032;-58
2022/06/01 02:50:27;;;;;;;18.63;16.15;;;10.50;99.90;;;;;;5086724;28;20048;-58
2022/06/01 02:52:54;;;;;;;18.55;16.55;;;10.40;99.90;;;;;;5082653;28;20078;-58
2022/06/01 02:55:21;;;;;;;20.05;16.70;;;10.40;99.90;;;;;;5090670;28;20028;-59
2022/06/01 02:57:48;;;;;;;19.25;16.38;;;10.40;99.90;;;;;;5095122;28;20036;-59
2022/06/01 03:00:19;;;;;;;19.40;16.83;;;10.50;99.90;;;;;;5083315;28;20065;-58
2022/06/01 03:02:49;;;;;;;19.17;17.17;;;10.50;99.90;;;;;;5095142;28;20015;-57
2022/06/01 03:05:16;;;;;;;21.10;17.60;;;10.50;99.90;;;;;;5087297;28;20023;-58
2022/06/01 03:07:42;;;;;;;19.67;16.42;;;10.50;99.90;;;;;;5096546;28;20502;-57
2022/06/01 03:10:09;;;;;;;21.05;16.83;;;10.40;99.90;;;;;;5090945;28;20115;-58
2022/06/01 03:12:36;;;;;;;21.67;17.20;;;10.50;99.90;;;;;;5093381;28;20595;-57
2022/06/01 03:15:02;;;;;;;23.75;17.33;;;10.40;99.90;;;;;;5095412;28;20110;-58
2022/06/01 03:17:27;;;;;;;18.48;16.55;;;10.40;99.90;;;;;;5097497;28;20027;-57
2022/06/01 03:19:53;;;;;;;18.83;16.83;;;10.30;99.90;;;;;;5099163;28;20623;-59
2022/06/01 03:22:18;;;;;;;20.45;16.77;;;10.30;99.90;;;;;;5099433;28;20485;-58
2022/06/01 03:24:44;;;;;;;23.42;16.48;;;10.30;99.90;;;;;;5095738;28;20688;-56
2022/06/01 03:27:10;;;;;;;18.42;16.02;;;10.40;99.90;;;;;;5084012;28;20031;-58
2022/06/01 03:29:35;;;;;;;21.90;17.80;;;10.20;99.90;;;;;;5099525;28;20020;-57
2022/06/01 03:32:01;;;;;;;21.67;17.42;;;10.20;99.90;;;;;;5092228;28;20036;-58
2022/06/01 03:34:30;;;;;;;19.35;17.05;;;10.30;99.90;;;;;;5098148;28;20015;-57
2022/06/01 03:36:56;;;;;;;19.55;17.15;;;10.30;99.90;;;;;;5090528;28;20016;-57
2022/06/01 03:39:21;;;;;;;19.92;17.08;;;10.30;99.90;;;;;;5103712;28;20084;-58
2022/06/01 03:41:47;;;;;;;21.30;18.05;;;10.30;99.90;;;;;;5094346;28;20031;-59
2022/06/01 03:47:05;;;;;;;24.88;18.20;;;10.50;99.90;;;;;;5089566;28;20039;-57
2022/06/01 03:49:32;;;;;;;22.10;18.05;;;10.50;99.90;;;;;;5101332;28;20039;-58
2022/06/01 03:52:01;;;;;;;21.65;18.98;;;10.50;99.90;;;;;;5094420;28;20465;-58
2022/06/01 03:54:27;;;;;;;20.98;18.83;;;10.80;99.90;;;;;;5085174;28;20028;-58
2022/06/01 03:56:52;;;;;;;20.55;17.95;;;10.80;99.90;;;;;;5091889;28;20078;-58
2022/06/01 03:59:18;;;;;;;25.15;18.02;;;10.70;99.90;;;;;;5084779;28;20062;-57
2022/06/01 04:01:44;;;;;;;20.48;17.17;;;10.70;99.90;;;;;;5090809;28;20036;-58
2022/06/01 04:04:09;;;;;;;20.95;16.63;;;10.60;99.90;;;;;;5096463;28;20440;-57
2022/06/01 04:06:35;;;;;;;19.90;16.10;;;10.50;99.90;;;;;;5092810;28;20099;-57
2022/06/01 04:09:00;;;;;;;20.42;15.50;;;10.60;99.90;;;;;;5090977;28;20115;-58
2022/06/01 04:11:26;;;;;;;18.75;14.85;;;10.60;99.90;;;;;;5087322;28;20055;-58
2022/06/01 04:13:51;;;;;;;18.02;14.90;;;10.60;99.90;;;;;;5099301;28;20036;-59
2022/06/01 04:16:19;;;;;;;17.67;14.85;;;10.80;99.90;;;;;;5091238;28;20051;-57
2022/06/01 04:18:48;;;;;;;21.17;15.80;;;10.80;99.90;;;;;;5103137;28;20059;-57
2022/06/01 04:21:16;;;;;;;18.42;15.43;;;10.80;99.90;;;;;;5085781;28;20107;-57
2022/06/01 04:23:41;;;;;;;17.88;14.93;;;10.80;99.90;;;;;;5100133;28;20458;-57
2022/06/01 04:26:07;;;;;;;16.85;15.02;;;10.70;99.90;;;;;;5096107;28;20122;-58
2022/06/01 04:28:33;;;;;;;19.35;14.63;;;10.70;99.90;;;;;;5087709;28;20063;-57
2022/06/01 04:30:59;;;;;;;18.60;15.15;;;10.70;99.90;;;;;;5094785;28;20032;-57
2022/06/01 04:33:27;;;;;;;17.70;15.80;;;10.70;99.90;;;;;;5090978;28;20111;-57
2022/06/01 04:35:53;;;;;;;20.05;16.13;;;10.80;99.90;;;;;;5088151;28;20048;-58
2022/06/01 04:38:19;;;;;;;20.33;16.48;;;10.90;99.90;;;;;;5095185;28;20016;-57
2022/06/01 04:40:47;;;;;;;18.52;16.55;;;11.10;99.90;;;;;;5096838;28;20108;-57
2022/06/01 04:43:14;;;;;;;18.92;16.92;;;11.10;99.90;;;;;;5085638;28;20054;-57
2022/06/01 04:45:40;;;;;;;20.00;16.92;;;11.10;99.90;;;;;;5086587;28;20099;-58
2022/06/01 04:48:06;;;;;;;21.27;16.77;;;11.20;99.90;;;;;;5098203;28;20047;-59
2022/06/01 04:50:32;;;;;;;21.70;17.05;;;11.20;99.90;;;;;;5088340;27;20054;-58
2022/06/01 04:52:57;;;;;;;20.70;16.65;;;11.30;99.90;;;;;;5097586;28;20027;-60
2022/06/01 04:55:23;;;;;;;20.50;17.08;;;11.40;99.90;;;;;;5088003;28;20387;-58
2022/06/01 04:57:49;;;;;;;21.85;18.50;;;11.50;99.90;;;;;;5097755;28;20020;-59
2022/06/01 05:00:15;;;;;;;20.38;17.13;;;11.40;99.90;;;;;;5079223;28;20483;-58
2022/06/01 05:02:40;;;;;;;21.92;17.65;;;11.60;99.90;;;;;;5090738;28;20019;-57
2022/06/01 05:05:07;;;;;;;21.45;17.92;;;11.70;99.90;;;;;;5072896;28;20043;-58
2022/06/01 05:07:32;;;;;;;21.42;17.05;;;11.60;99.90;;;;;;5094825;28;20150;-59
2022/06/01 05:09:58;;;;;;;24.45;17.90;;;11.60;99.90;;;;;;5087852;28;20060;-58
2022/06/01 05:12:23;;;;;;;22.67;17.73;;;11.60;99.90;;;;;;5092030;28;20043;-59
2022/06/01 05:14:49;;;;;;;22.40;18.13;;;11.70;99.90;;;;;;5087731;28;20043;-59
2022/06/01 05:17:15;;;;;;;20.70;18.50;;;11.70;99.90;;;;;;5094399;28;20035;-58
2022/06/01 05:19:40;;;;;;;19.63;16.45;;;11.60;99.90;;;;;;5086921;28;20607;-60
2022/06/01 05:22:06;;;;;;;24.90;18.77;;;11.50;99.90;;;;;;5088448;28;20505;-61
2022/06/01 05:24:31;;;;;;;18.48;16.48;;;12.00;99.90;;;;;;5096091;28;20107;-57
2022/06/01 05:26:57;;;;;;;20.23;16.23;;;12.20;99.90;;;;;;5086270;28;20040;-57
2022/06/01 05:29:22;;;;;;;20.52;16.80;;;12.20;99.90;;;;;;5086809;28;20034;-57
2022/06/01 05:31:49;;;;;;;17.98;15.77;;;12.30;99.90;;;;;;5091972;28;20085;-58
2022/06/01 05:34:15;;;;;;;19.95;14.75;;;12.30;99.90;;;;;;5092685;28;20388;-58
2022/06/01 05:36:40;;;;;;;18.90;15.68;;;12.40;99.90;;;;;;5085211;28;20028;-59
2022/06/01 05:39:06;;;;;;;17.30;15.30;;;12.50;99.90;;;;;;5089671;28;20044;-59
2022/06/01 05:41:32;;;;;;;17.10;13.93;;;12.60;99.90;;;;;;5092123;28;20039;-57
2022/06/01 05:43:58;;;;;;;18.95;14.38;;;12.40;99.90;;;;;;5089080;28;20043;-59
2022/06/01 05:46:23;;;;;;;16.83;13.48;;;12.40;99.90;;;;;;5095289;28;20020;-58
2022/06/01 05:48:49;;;;;;;17.60;13.65;;;12.60;99.90;;;;;;5095146;28;20023;-59
2022/06/01 05:51:14;;;;;;;16.83;13.82;;;12.80;99.90;;;;;;5092523;28;20749;-59
2022/06/01 05:53:41;;;;;;;18.05;13.60;;;12.80;99.90;;;;;;5072848;28;20035;-59
2022/06/01 05:56:06;;;;;;;18.75;13.73;;;12.80;99.90;;;;;;5088891;28;20035;-58
2022/06/01 05:58:35;;;;;;;21.05;15.73;;;12.90;99.90;;;;;;5088037;28;20019;-58
2022/06/01 06:01:06;;;;;;;19.55;14.40;;;13.00;99.90;;;;;;5094132;28;20379;-59
2022/06/01 06:03:32;;;;;;;20.40;15.25;;;13.10;99.90;;;;;;5102001;28;20041;-58
2022/06/01 06:06:12;;;;;;;19.45;14.55;;;13.30;99.90;;;;;;5092086;28;20028;-59
2022/06/01 06:08:43;;;;;;;19.02;13.98;;;13.30;99.90;;;;;;5089641;28;20739;-58
2022/06/01 06:11:09;;;;;;;19.38;13.15;;;13.30;99.90;;;;;;5090420;28;20027;-58
2022/06/01 06:13:35;;;;;;;16.10;13.73;;;13.30;99.90;;;;;;5088349;28;20036;-58
2022/06/01 06:16:03;;;;;;;19.65;13.90;;;13.40;99.90;;;;;;5087688;28;20455;-57
2022/06/01 06:18:28;;;;;;;22.35;14.73;;;13.40;99.90;;;;;;5085307;28;20103;-58
2022/06/01 06:20:54;;;;;;;17.85;14.10;;;13.20;99.90;;;;;;5092059;28;20088;-59
2022/06/01 06:23:20;;;;;;;17.70;13.57;;;13.30;99.90;;;;;;5089896;28;20035;-58
2022/06/01 06:25:46;;;;;;;21.35;14.48;;;13.40;99.90;;;;;;5084730;28;20030;-58
2022/06/01 06:28:12;;;;;;;18.27;13.50;;;13.50;99.90;;;;;;5085807;28;20032;-57
2022/06/01 06:30:38;;;;;;;16.60;14.10;;;13.50;99.90;;;;;;5088389;28;20051;-58
2022/06/01 06:33:05;;;;;;;18.42;12.02;;;13.70;99.90;;;;;;5078161;28;20456;-58
2022/06/01 06:35:32;;;;;;;16.85;12.15;;;13.50;99.90;;;;;;5077748;28;20479;-58
2022/06/01 06:37:57;;;;;;;16.95;12.50;;;13.50;99.90;;;;;;5096076;28;20052;-60
2022/06/01 06:40:23;;;;;;;14.27;12.43;;;13.70;99.90;;;;;;5103742;28;20104;-58
2022/06/01 06:42:49;;;;;;;16.30;12.00;;;13.70;99.90;;;;;;5094386;28;20024;-58
2022/06/01 06:45:14;;;;;;;17.13;11.27;;;13.90;99.90;;;;;;5087730;28;20020;-59
2022/06/01 06:47:43;;;;;;;16.73;11.40;;;14.00;99.90;;;;;;5093139;28;20103;-57
2022/06/01 06:50:11;;;;;;;14.85;10.55;;;14.00;99.90;;;;;;5085229;28;20464;-60
2022/06/01 06:52:36;;;;;;;11.77;10.27;;;14.10;99.90;;;;;;5080522;28;20455;-58
2022/06/01 06:55:02;;;;;;;15.77;10.45;;;14.10;99.90;;;;;;5091650;28;20047;-58
2022/06/01 06:57:28;;;;;;;13.48;10.52;;;14.40;99.90;;;;;;5095036;28;20040;-59
2022/06/01 06:59:53;;;;;;;14.07;9.77;;;14.40;99.90;;;;;;5090320;28;20032;-59
2022/06/01 07:02:19;;;;;;;15.75;9.82;;;14.30;99.90;;;;;;5077788;28;20035;-59
2022/06/01 07:04:46;;;;;;;13.05;9.40;;;14.30;99.90;;;;;;5088688;28;20094;-59
2022/06/01 07:07:14;;;;;;;13.07;10.00;;;14.10;99.90;;;;;;5095208;28;20742;-59
2022/06/01 07:09:39;;;;;;;11.40;8.85;;;14.20;99.90;;;;;;5100604;28;20028;-60
2022/06/01 07:12:05;;;;;;;13.73;8.73;;;14.50;99.90;;;;;;5093988;28;20077;-59
2022/06/01 07:14:31;;;;;;;10.18;7.80;;;14.40;99.90;;;;;;5095694;28;20029;-59
2022/06/01 07:17:01;;;;;;;12.10;8.18;;;14.50;99.90;;;;;;5085874;27;20103;-59
2022/06/01 07:19:27;;;;;;;14.70;8.75;;;14.60;99.90;;;;;;5079501;28;20042;-58
2022/06/01 07:21:53;;;;;;;13.63;8.82;;;14.60;99.90;;;;;;5087217;28;20017;-59
2022/06/01 07:24:20;;;;;;;11.18;8.43;;;14.60;99.90;;;;;;5093123;28;20039;-60
2022/06/01 07:26:47;;;;;;;12.93;8.55;;;14.80;99.90;;;;;;5086771;28;20031;-59
2022/06/01 07:29:15;;;;;;;15.65;8.75;;;14.80;99.90;;;;;;5089774;28;20429;-59
2022/06/01 07:31:41;;;;;;;14.90;8.15;;;14.90;99.90;;;;;;5102097;28;20024;-59
2022/06/01 07:34:07;;;;;;;14.50;8.50;;;15.10;99.90;;;;;;5102054;28;20032;-58
2022/06/01 07:36:34;;;;;;;12.90;8.20;;;15.20;99.90;;;;;;5094913;28;20498;-59
2022/06/01 07:44:44;;;;;;;13.27;8.10;;;15.30;99.90;;;;;;5096400;28;20105;-58
2022/06/01 07:47:12;;;;;;;14.23;8.15;;;15.30;99.90;;;;;;5088330;28;20049;-60
2022/06/01 07:49:37;;;;;;;10.90;8.25;;;15.40;99.90;;;;;;5088009;28;20107;-60
2022/06/01 07:52:06;;;;;;;10.93;7.47;;;15.40;99.90;;;;;;5099250;28;20547;-60
2022/06/01 07:54:32;;;;;;;13.43;8.30;;;15.30;99.90;;;;;;5090460;28;20168;-59
2022/06/01 07:56:57;;;;;;;10.77;8.13;;;15.40;99.90;;;;;;5078864;28;20131;-60
2022/06/01 07:59:23;;;;;;;11.15;7.93;;;15.20;99.90;;;;;;5092030;28;20173;-60
2022/06/01 08:01:48;;;;;;;11.10;8.25;;;15.20;99.90;;;;;;5094325;28;20027;-60
2022/06/01 08:04:16;;;;;;;9.48;7.95;;;15.50;99.90;;;;;;5091580;28;20115;-60
2022/06/01 08:06:41;;;;;;;14.05;9.10;;;15.60;99.90;;;;;;5091285;28;20024;-59
2022/06/01 08:09:07;;;;;;;12.75;7.85;;;15.60;99.90;;;;;;5095131;28;20031;-59
2022/06/01 08:14:17;;;;;;;11.90;7.60;;;15.80;99.90;;;;;;5093253;28;20030;-59
2022/06/01 08:16:44;;;;;;;12.02;8.32;;;16.10;99.90;;;;;;5100817;28;20038;-60
2022/06/01 08:19:11;;;;;;;12.90;7.82;;;15.90;99.90;;;;;;5085830;28;20047;-59
2022/06/01 08:21:38;;;;;;;10.93;7.20;;;15.80;99.90;;;;;;5097840;28;20472;-60
2022/06/01 08:24:05;;;;;;;11.20;7.13;;;15.70;99.90;;;;;;5090765;28;20020;-59
2022/06/01 08:26:31;;;;;;;7.28;5.55;;;15.80;99.90;;;;;;5101164;28;20023;-59
2022/06/01 08:28:57;;;;;;;9.23;6.00;;;15.70;99.90;;;;;;5097618;28;20616;-59
2022/06/01 08:31:27;;;;;;;9.57;6.32;;;15.90;99.90;;;;;;5096762;28;20110;-60
2022/06/01 08:33:53;;;;;;;8.18;5.35;;;16.20;99.90;;;;;;5085807;28;20082;-59
2022/06/01 08:36:19;;;;;;;8.40;5.88;;;16.30;99.90;;;;;;5088174;28;20027;-60
2022/06/01 08:38:44;;;;;;;9.75;5.35;;;16.50;99.90;;;;;;5099364;28;20035;-60
2022/06/01 08:41:13;;;;;;;10.52;6.07;;;16.50;99.90;;;;;;5099846;28;20047;-61
2022/06/01 08:44:01;;;;;;;7.38;5.97;;;16.50;99.90;;;;;;5090400;28;20031;-60
2022/06/01 08:46:29;;;;;;;6.88;5.00;;;16.40;99.90;;;;;;5073730;28;20028;-59
2022/06/01 08:49:14;;;;;;;40.47;31.15;;;16.40;99.90;;;;;;5075728;28;20506;-60
2022/06/01 08:51:39;;;;;;;6.60;5.20;;;16.40;99.90;;;;;;5079055;28;20325;-59
2022/06/01 08:54:05;;;;;;;7.88;5.70;;;16.30;99.90;;;;;;5094326;28;20433;-60
2022/06/01 08:56:41;;;;;;;9.88;5.82;;;16.10;99.90;;;;;;5094407;28;20050;-59
2022/06/01 08:59:26;;;;;;;7.70;4.65;;;16.30;99.90;;;;;;5095878;28;20142;-60
2022/06/01 09:02:06;;;;;;;7.05;4.30;;;;;;;;;;5080258;28;20035;-60
2022/06/01 09:04:37;;;;;;;13.90;9.63;;;16.60;99.90;;;;;;5096097;28;20016;-60
2022/06/01 09:07:27;;;;;;;8.15;6.47;;;16.00;99.90;;;;;;5097649;28;20620;-62
2022/06/01 09:10:10;;;;;;;5.82;4.28;;;17.20;99.90;;;;;;5093263;28;20077;-60
2022/06/01 09:12:36;;;;;;;7.82;3.85;;;17.20;99.90;;;;;;5090235;28;20450;-60
2022/06/01 09:15:14;;;;;;;5.18;3.10;;;17.30;99.90;;;;;;5089223;28;20642;-60
2022/06/01 09:17:43;;;;;;;14.63;5.68;;;17.30;99.90;;;;;;5096447;28;20024;-61
2022/06/01 09:22:54;;;;;;;6.32;3.78;;;;;;;;;;5075724;28;20150;-61
2022/06/01 09:25:26;;;;;;;6.70;3.70;;;;;;;;;;5086733;28;20039;-61
2022/06/01 09:27:59;;;;;;;6.60;2.97;;;;;;;;;;5082807;28;20032;-62
2022/06/01 09:30:38;;;;;;;4.20;2.65;;;;;;;;;;5088828;28;20038;-62
2022/06/01 09:33:04;;;;;;;5.90;2.63;;;;;;;;;;5092375;28;20095;-61
2022/06/01 09:35:33;;;;;;;6.00;3.25;;;;;;;;;;5084614;28;20107;-61
2022/06/01 09:38:02;;;;;;;3.80;2.88;;;;;;;;;;5094563;28;20224;-61
2022/06/01 09:40:30;;;;;;;4.47;2.75;;;;;;;;;;5093668;28;20102;-60
2022/06/01 09:42:59;;;;;;;4.47;2.50;;;;;;;;;;5094720;28;20023;-61
2022/06/01 09:45:27;;;;;;;4.20;2.30;;;;;;;;;;5090955;28;20507;-61
2022/06/01 09:47:54;;;;;;;3.45;2.33;;;;;;;;;;5094718;28;20027;-61
2022/06/01 09:50:46;;;;;;;4.50;2.15;;;;;;;;;;5080152;28;20042;-61
2022/06/01 09:53:12;;;;;;;6.72;2.60;;;;;;;;;;5085871;28;20092;-62
2022/06/01 09:55:50;;;;;;;6.43;2.40;;;;;;;;;;5079322;28;20504;-61
2022/06/01 10:06:05;;;;;;;4.93;2.38;;;;;;;;;;5078950;28;20060;-61
2022/06/01 10:06:54;;;;;;;9.15;2.63;;;;;;;;;;5093589;28;20038;-62
2022/06/01 10:09:22;;;;;;;6.53;2.85;;;;;;;;;;5092965;28;20463;-61
2022/06/01 10:11:51;;;;;;;5.53;3.10;;;;;;;;;;5087577;28;20640;-61
2022/06/01 10:14:24;;;;;;;3.13;2.47;;;;;;;;;;5078242;28;20020;-62
2022/06/01 10:16:50;;;;;;;;;;;;;;;;;;5091612;28;20039;-61
2022/06/01 10:19:18;;;;;;;5.90;2.70;;;;;;;;;;5087801;28;20508;-61
2022/06/01 10:21:59;;;;;;;7.30;2.90;;;;;;;;;;5088273;28;20029;-62
2022/06/01 10:24:29;;;;;;;3.53;2.40;;;;;;;;;;5092002;28;20022;-61
2022/06/01 10:26:55;;;;;;;4.35;2.47;;;;;;;;;;5088216;28;20511;-61
2022/06/01 10:29:26;;;;;;;6.63;2.60;;;;;;;;;;5082256;28;20028;-61
2022/06/01 10:31:57;;;;;;;6.65;2.63;;;;;;;;;;5089163;28;20034;-62
2022/06/01 10:34:42;;;;;;;6.57;2.80;;;;;;;;;;5084561;28;20028;-61
2022/06/01 10:37:16;;;;;;;6.90;2.40;;;;;;;;;;5084047;28;20062;-61
2022/06/01 10:39:48;;;;;;;5.82;2.20;;;;;;;;;;5080319;28;20144;-61
2022/06/01 10:45:30;;;;;;;3.92;2.65;;;;;;;;;;5074827;28;20047;-61
2022/06/01 10:48:00;;;;;;;4.78;2.20;;;;;;;;;;5072692;28;20027;-62
2022/06/01 10:50:32;;;;;;;5.28;2.30;;;;;;;;;;5083052;28;20131;-62
2022/06/01 10:53:13;;;;;;;6.13;2.20;;;;;;;;;;5084651;28;20047;-61
2022/06/01 10:55:43;;;;;;;5.55;2.00;;;;;;;;;;5092145;28;20023;-61
2022/06/01 10:58:14;;;;;;;3.70;2.00;;;;;;;;;;5085767;28;20031;-61
2022/06/01 11:00:46;;;;;;;6.35;2.63;;;;;;;;;;5081258;28;20028;-62
2022/06/01 11:03:27;;;;;;;5.68;2.10;;;;;;;;;;5092021;28;20024;-61
2022/06/01 11:06:03;;;;;;;4.20;1.70;;;;;;;;;;5072571;28;20060;-62
2022/06/01 11:08:35;;;;;;;4.47;2.05;;;;;;;;;;5088013;28;20037;-62
2022/06/01 11:11:11;;;;;;;4.38;2.05;;;;;;;;;;5082216;28;20059;-60
2022/06/01 11:13:40;;;;;;;8.02;2.30;;;;;;;;;;5086997;28;20600;-61
2022/06/01 11:16:06;;;;;;;4.60;2.40;;;;;;;;;;5077208;28;20043;-62
2022/06/01 11:18:44;;;;;;;4.65;2.75;;;;;;;;;;5092044;28;20024;-61
2022/06/01 11:21:25;;;;;;;7.88;2.83;;;;;;;;;;5081323;28;20031;-60
2022/06/01 11:24:09;;;;;;;5.40;2.47;;;;;;;;;;5083506;28;20494;-61
2022/06/01 11:27:07;;;;;;;5.03;2.92;;;;;;;;;;5090952;28;20042;-62
2022/06/01 11:29:48;;;;;;;4.47;2.83;;;;;;;;;;5081726;28;20387;-61
2022/06/01 11:32:20;;;;;;;8.50;2.65;;;;;;;;;;5090265;28;20028;-61
2022/06/01 11:34:46;;;;;;;5.60;2.55;;;;;;;;;;5086468;28;20046;-62
2022/06/01 11:37:12;;;;;;;5.40;2.13;;;;;;;;;;5096331;28;20027;-61
2022/06/01 11:39:41;;;;;;;6.15;2.45;;;;;;;;;;5085283;28;20032;-62
2022/06/01 11:42:16;;;;;;;6.45;1.98;;;;;;;;;;5084437;28;20847;-62
2022/06/01 11:44:47;;;;;;;4.18;1.95;;;;;;;;;;5082862;28;20027;-60
2022/06/01 11:47:16;;;;;;;7.68;2.38;;;;;;;;;;5087815;28;20039;-62
2022/06/01 11:49:44;;;;;;;6.03;2.65;;;;;;;;;;5081363;28;20532;-62
2022/06/01 11:52:26;;;;;;;4.63;2.35;;;;;;;;;;5101377;28;20106;-61
2022/06/01 11:54:57;;;;;;;4.45;2.10;;;;;;;;;;5084363;28;20525;-61
2022/06/01 11:57:24;;;;;;;6.35;2.40;;;;;;;;;;5089438;28;20036;-60
2022/06/01 12:00:04;;;;;;;8.13;2.22;;;;;;;;;;5085094;28;20028;-61
2022/06/01 12:02:50;;;;;;;3.55;2.20;;;;;;;;;;5080950;28;20044;-62
2022/06/01 12:05:28;;;;;;;4.82;2.55;;;;;;;;;;5073531;28;20463;-61
2022/06/01 12:07:57;;;;;;;10.93;6.13;;;;;;;;;;5094635;28;20530;-61
2022/06/01 12:10:28;;;;;;;2.72;2.00;;;;;;;;;;5088291;28;20523;-61
2022/06/01 12:12:59;;;;;;;3.35;2.15;;;15.60;99.90;;;;;;5089402;28;20038;-59
2022/06/01 12:15:34;;;;;;;9.68;2.47;;;15.30;99.90;;;;;;5097770;28;20107;-60
2022/06/01 12:18:03;;;;;;;4.47;2.75;;;14.50;99.90;;;;;;5078529;28;20033;-59
2022/06/01 12:20:32;;;;;;;4.55;3.00;;;13.80;99.90;;;;;;5083163;28;20036;-59
2022/06/01 12:29:04;;;;;;;6.70;3.70;;;13.80;99.90;;;;;;5079904;28;20046;-61
2022/06/01 12:31:36;;;;;;;3.80;3.47;;;13.60;99.90;;;;;;5096920;28;20064;-59
2022/06/01 12:34:04;;;;;;;4.28;3.88;;;13.40;99.90;;;;;;5101605;28;20466;-59
2022/06/01 12:37:06;;;;;;;4.68;4.20;;;13.60;99.90;;;;;;5088661;28;20016;-59
2022/06/01 12:39:38;;;;;;;7.03;4.75;;;13.40;99.90;;;;;;5081527;28;20055;-59
2022/06/01 12:42:14;;;;;;;4.82;4.32;;;13.30;99.90;;;;;;5096387;28;20024;-59
2022/06/01 12:44:44;;;;;;;6.13;4.78;;;13.40;99.90;;;;;;5093227;28;20051;-58
2022/06/01 12:47:22;;;;;;;5.93;5.03;;;13.70;99.90;;;;;;5085004;28;20054;-58
2022/06/01 12:49:48;;;;;;;4.68;4.28;;;14.20;99.90;;;;;;5080243;28;20403;-60
2022/06/01 12:52:25;;;;;;;5.25;4.75;;;14.20;99.90;;;;;;5093533;28;20413;-59
2022/06/01 12:54:51;;;;;;;5.65;4.70;;;14.40;99.90;;;;;;5087672;28;20046;-59
2022/06/01 12:57:51;;;;;;;4.68;4.28;;;14.50;99.90;;;;;;5093219;28;20041;-60
2022/06/01 13:00:30;;;;;;;4.90;4.40;;;14.30;99.90;;;;;;5087624;28;20129;-60
2022/06/01 13:02:56;;;;;;;5.43;4.50;;;14.00;99.90;;;;;;5087384;28;20394;-60
2022/06/01 13:05:46;;;;;;;4.22;3.83;;;14.20;99.90;;;;;;5095889;28;20020;-59
2022/06/01 13:08:27;;;;;;;4.82;4.30;;;14.30;99.90;;;;;;5084508;28;20021;-60
2022/06/01 13:10:52;;;;;;;4.88;4.45;;;14.00;99.90;;;;;;5078798;28;20831;-60
2022/06/01 13:13:25;;;;;;;5.55;5.05;;;14.30;99.90;;;;;;5081196;28;20099;-60
2022/06/01 13:16:05;;;;;;;5.95;5.45;;;14.40;99.90;;;;;;5087602;28;20653;-58
2022/06/01 13:18:38;;;;;;;6.45;5.95;;;14.60;99.90;;;;;;5095918;28;20367;-59
2022/06/01 13:21:09;;;;;;;6.90;6.22;;;14.70;99.90;;;;;;5082842;28;20450;-59
2022/06/01 13:23:57;;;;;;;8.30;6.90;;;14.70;99.90;;;;;;5090850;28;20608;-61
2022/06/01 13:26:44;;;;;;;9.88;8.93;;;14.80;99.90;;;;;;5088243;28;20028;-59
2022/06/01 13:29:27;;;;;;;8.75;8.02;;;14.50;99.90;;;;;;5088920;28;20025;-58
2022/06/01 13:31:55;;;;;;;9.50;8.65;;;14.30;99.90;;;;;;5093896;28;20514;-59
2022/06/01 13:34:49;;;;;;;7.97;7.28;;;14.30;99.90;;;;;;5090545;28;20026;-58
2022/06/01 13:37:21;;;;;;;10.60;9.15;;;14.10;99.90;;;;;;5080844;28;20025;-58
2022/06/01 13:39:56;;;;;;;9.52;8.63;;;14.20;99.90;;;;;;5088422;28;20432;-60
2022/06/01 13:42:48;;;;;;;12.18;10.98;;;14.10;99.90;;;;;;5087171;28;20019;-59
2022/06/01 13:45:32;;;;;;;8.88;7.53;;;14.10;99.90;;;;;;5077196;28;20028;-60
2022/06/01 13:48:01;;;;;;;8.95;8.05;;;13.90;99.90;;;;;;5090340;28;20019;-59